sensor_id;sensor_type;location;lat;lon;timestamp;P1;durP1;ratioP1;P2;durP2;ratioP2
71566;SDS011;59403;47.456;19.120;2023-05-07T00:01:37;17.62;;;13.40;;
71566;SDS011;59403;47.456;19.120;2023-05-07T00:04:08;17.77;;;13.88;;
71566;SDS011;59403;47.456;19.120;2023-05-07T00:06:35;17.10;;;13.23;;
71566;SDS011;59403;47.456;19.120;2023-05-07T00:09:02;17.60;;;13.60;;
71566;SDS011;59403;47.456;19.120;2023-05-07T00:11:29;17.83;;;13.23;;
71566;SDS011;59403;47.456;19.120;2023-05-07T00:13:56;18.70;;;14.05;;
71566;SDS011;59403;47.456;19.120;2023-05-07T00:16:23;18.25;;;14.30;;
71566;SDS011;59403;47.456;19.120;2023-05-07T00:18:50;20.08;;;14.40;;
71566;SDS011;59403;47.456;19.120;2023-05-07T00:21:20;19.65;;;13.98;;
71566;SDS011;59403;47.456;19.120;2023-05-07T00:23:47;16.62;;;13.85;;
71566;SDS011;59403;47.456;19.120;2023-05-07T00:26:14;17.27;;;12.93;;
71566;SDS011;59403;47.456;19.120;2023-05-07T00:28:41;17.70;;;13.40;;
71566;SDS011;59403;47.456;19.120;2023-05-07T00:31:08;16.75;;;13.75;;
71566;SDS011;59403;47.456;19.120;2023-05-07T00:33:35;18.52;;;13.70;;
71566;SDS011;59403;47.456;19.120;2023-05-07T00:36:02;17.40;;;13.27;;
71566;SDS011;59403;47.456;19.120;2023-05-07T00:38:30;19.70;;;14.65;;
71566;SDS011;59403;47.456;19.120;2023-05-07T00:40:57;18.83;;;14.38;;
71566;SDS011;59403;47.456;19.120;2023-05-07T00:43:24;18.60;;;14.07;;
71566;SDS011;59403;47.456;19.120;2023-05-07T00:45:52;18.58;;;14.25;;
71566;SDS011;59403;47.456;19.120;2023-05-07T00:48:19;17.52;;;13.77;;
71566;SDS011;59403;47.456;19.120;2023-05-07T00:50:46;18.87;;;14.05;;
71566;SDS011;59403;47.456;19.120;2023-05-07T00:53:14;15.90;;;12.80;;
71566;SDS011;59403;47.456;19.120;2023-05-07T00:55:42;17.12;;;13.40;;
71566;SDS011;59403;47.456;19.120;2023-05-07T00:58:09;17.20;;;13.88;;
71566;SDS011;59403;47.456;19.120;2023-05-07T04:49:34;20.52;;;11.82;;
71566;SDS011;59403;47.456;19.120;2023-05-07T04:52:01;18.75;;;12.48;;
71566;SDS011;59403;47.456;19.120;2023-05-07T04:54:28;21.70;;;14.98;;
71566;SDS011;59403;47.456;19.120;2023-05-07T04:56:55;22.60;;;13.88;;
71566;SDS011;59403;47.456;19.120;2023-05-07T04:59:22;24.20;;;14.57;;
71566;SDS011;59403;47.456;19.120;2023-05-07T05:01:49;24.48;;;13.10;;
71566;SDS011;59403;47.456;19.120;2023-05-07T05:04:16;14.57;;;11.68;;
71566;SDS011;59403;47.456;19.120;2023-05-07T05:06:44;15.93;;;11.30;;
71566;SDS011;59403;47.456;19.120;2023-05-07T05:09:11;13.68;;;11.35;;
71566;SDS011;59403;47.456;19.120;2023-05-07T05:11:39;13.23;;;10.65;;
71566;SDS011;59403;47.456;19.120;2023-05-07T05:14:06;16.45;;;11.88;;
71566;SDS011;59403;47.456;19.120;2023-05-07T05:16:33;15.25;;;11.35;;
71566;SDS011;59403;47.456;19.120;2023-05-07T05:19:01;13.48;;;10.50;;
71566;SDS011;59403;47.456;19.120;2023-05-07T05:21:28;15.48;;;10.48;;
71566;SDS011;59403;47.456;19.120;2023-05-07T05:23:56;14.63;;;10.45;;
71566;SDS011;59403;47.456;19.120;2023-05-07T05:26:23;14.10;;;10.80;;
71566;SDS011;59403;47.456;19.120;2023-05-07T05:28:50;12.85;;;10.45;;
71566;SDS011;59403;47.456;19.120;2023-05-07T05:31:16;16.25;;;11.93;;
71566;SDS011;59403;47.456;19.120;2023-05-07T05:33:43;15.45;;;11.82;;
71566;SDS011;59403;47.456;19.120;2023-05-07T05:36:10;18.58;;;13.15;;
71566;SDS011;59403;47.456;19.120;2023-05-07T05:38:38;15.38;;;11.40;;
71566;SDS011;59403;47.456;19.120;2023-05-07T05:41:07;14.65;;;11.15;;
71566;SDS011;59403;47.456;19.120;2023-05-07T05:43:34;16.15;;;11.25;;
71566;SDS011;59403;47.456;19.120;2023-05-07T05:46:01;14.85;;;10.98;;
71566;SDS011;59403;47.456;19.120;2023-05-07T05:48:29;13.90;;;10.98;;
71566;SDS011;59403;47.456;19.120;2023-05-07T05:50:56;13.73;;;10.85;;
71566;SDS011;59403;47.456;19.120;2023-05-07T05:53:23;15.80;;;10.38;;
71566;SDS011;59403;47.456;19.120;2023-05-07T05:55:50;13.20;;;10.63;;
71566;SDS011;59403;47.456;19.120;2023-05-07T05:58:18;13.50;;;10.10;;
71566;SDS011;59403;47.456;19.120;2023-05-07T06:00:45;12.63;;;9.75;;
71566;SDS011;59403;47.456;19.120;2023-05-07T06:03:13;11.90;;;9.75;;
71566;SDS011;59403;47.456;19.120;2023-05-07T06:05:40;12.80;;;10.35;;
71566;SDS011;59403;47.456;19.120;2023-05-07T06:08:07;14.43;;;10.25;;
71566;SDS011;59403;47.456;19.120;2023-05-07T06:10:35;13.55;;;10.32;;
71566;SDS011;59403;47.456;19.120;2023-05-07T06:13:02;13.43;;;10.25;;
71566;SDS011;59403;47.456;19.120;2023-05-07T06:15:30;14.48;;;10.32;;
71566;SDS011;59403;47.456;19.120;2023-05-07T06:17:57;14.35;;;10.80;;
71566;SDS011;59403;47.456;19.120;2023-05-07T06:20:24;12.90;;;9.98;;
71566;SDS011;59403;47.456;19.120;2023-05-07T06:22:51;13.88;;;10.45;;
71566;SDS011;59403;47.456;19.120;2023-05-07T06:25:19;12.63;;;10.37;;
71566;SDS011;59403;47.456;19.120;2023-05-07T06:27:46;12.00;;;10.05;;
71566;SDS011;59403;47.456;19.120;2023-05-07T06:30:13;12.75;;;9.95;;
71566;SDS011;59403;47.456;19.120;2023-05-07T06:32:41;12.15;;;9.80;;
71566;SDS011;59403;47.456;19.120;2023-05-07T06:35:08;12.02;;;9.23;;
71566;SDS011;59403;47.456;19.120;2023-05-07T06:37:35;13.47;;;10.10;;
71566;SDS011;59403;47.456;19.120;2023-05-07T06:40:04;10.63;;;9.27;;
71566;SDS011;59403;47.456;19.120;2023-05-07T06:42:49;16.77;;;9.50;;
71566;SDS011;59403;47.456;19.120;2023-05-07T06:45:26;10.38;;;8.55;;
71566;SDS011;59403;47.456;19.120;2023-05-07T06:47:55;11.27;;;8.50;;
71566;SDS011;59403;47.456;19.120;2023-05-07T06:50:21;10.33;;;7.93;;
71566;SDS011;59403;47.456;19.120;2023-05-07T06:52:48;10.05;;;8.02;;
71566;SDS011;59403;47.456;19.120;2023-05-07T06:55:15;11.02;;;8.23;;
71566;SDS011;59403;47.456;19.120;2023-05-07T06:57:42;9.25;;;7.68;;
71566;SDS011;59403;47.456;19.120;2023-05-07T07:00:09;11.98;;;7.75;;
71566;SDS011;59403;47.456;19.120;2023-05-07T07:02:37;8.43;;;7.30;;
71566;SDS011;59403;47.456;19.120;2023-05-07T07:05:08;9.38;;;6.72;;
71566;SDS011;59403;47.456;19.120;2023-05-07T07:07:35;8.88;;;6.45;;
71566;SDS011;59403;47.456;19.120;2023-05-07T07:10:17;9.48;;;5.55;;
71566;SDS011;59403;47.456;19.120;2023-05-07T07:12:45;6.45;;;4.28;;
71566;SDS011;59403;47.456;19.120;2023-05-07T07:15:11;3.53;;;3.23;;
71566;SDS011;59403;47.456;19.120;2023-05-07T07:17:39;3.30;;;2.70;;
71566;SDS011;59403;47.456;19.120;2023-05-07T07:20:06;3.47;;;2.12;;
71566;SDS011;59403;47.456;19.120;2023-05-07T07:22:35;3.62;;;2.30;;
71566;SDS011;59403;47.456;19.120;2023-05-07T07:25:02;4.20;;;2.70;;
71566;SDS011;59403;47.456;19.120;2023-05-07T07:27:29;4.23;;;3.17;;
71566;SDS011;59403;47.456;19.120;2023-05-07T07:29:56;5.55;;;3.10;;
71566;SDS011;59403;47.456;19.120;2023-05-07T07:32:23;4.62;;;2.75;;
71566;SDS011;59403;47.456;19.120;2023-05-07T07:34:50;4.60;;;3.10;;
71566;SDS011;59403;47.456;19.120;2023-05-07T07:37:19;3.30;;;2.80;;
71566;SDS011;59403;47.456;19.120;2023-05-07T07:39:46;4.23;;;3.00;;
71566;SDS011;59403;47.456;19.120;2023-05-07T07:42:13;4.28;;;3.65;;
71566;SDS011;59403;47.456;19.120;2023-05-07T07:44:40;4.68;;;3.60;;
71566;SDS011;59403;47.456;19.120;2023-05-07T07:47:07;5.68;;;4.57;;
71566;SDS011;59403;47.456;19.120;2023-05-07T07:49:34;6.03;;;4.68;;
71566;SDS011;59403;47.456;19.120;2023-05-07T07:52:01;5.57;;;3.93;;
71566;SDS011;59403;47.456;19.120;2023-05-07T07:54:29;4.03;;;3.55;;
71566;SDS011;59403;47.456;19.120;2023-05-07T07:56:56;4.03;;;2.78;;
71566;SDS011;59403;47.456;19.120;2023-05-07T07:59:23;3.05;;;2.75;;
71566;SDS011;59403;47.456;19.120;2023-05-07T08:01:50;3.50;;;2.42;;
71566;SDS011;59403;47.456;19.120;2023-05-07T08:04:20;2.95;;;2.65;;
71566;SDS011;59403;47.456;19.120;2023-05-07T08:06:47;3.10;;;2.75;;
71566;SDS011;59403;47.456;19.120;2023-05-07T08:09:14;4.32;;;2.72;;
71566;SDS011;59403;47.456;19.120;2023-05-07T08:11:42;3.85;;;3.30;;
71566;SDS011;59403;47.456;19.120;2023-05-07T08:14:09;3.83;;;2.65;;
71566;SDS011;59403;47.456;19.120;2023-05-07T08:16:36;4.83;;;2.80;;
71566;SDS011;59403;47.456;19.120;2023-05-07T08:19:03;3.03;;;2.50;;
71566;SDS011;59403;47.456;19.120;2023-05-07T08:21:30;3.95;;;2.45;;
71566;SDS011;59403;47.456;19.120;2023-05-07T08:23:57;3.40;;;2.53;;
71566;SDS011;59403;47.456;19.120;2023-05-07T08:26:24;2.92;;;2.33;;
71566;SDS011;59403;47.456;19.120;2023-05-07T08:28:53;6.27;;;3.13;;
71566;SDS011;59403;47.456;19.120;2023-05-07T08:31:19;3.75;;;2.90;;
71566;SDS011;59403;47.456;19.120;2023-05-07T08:33:46;3.20;;;2.60;;
71566;SDS011;59403;47.456;19.120;2023-05-07T08:36:13;4.85;;;3.00;;
71566;SDS011;59403;47.456;19.120;2023-05-07T08:38:40;4.95;;;3.12;;
71566;SDS011;59403;47.456;19.120;2023-05-07T08:41:09;5.17;;;3.10;;
71566;SDS011;59403;47.456;19.120;2023-05-07T08:43:36;4.10;;;2.90;;
71566;SDS011;59403;47.456;19.120;2023-05-07T08:46:07;4.43;;;2.95;;
71566;SDS011;59403;47.456;19.120;2023-05-07T08:48:35;4.25;;;3.35;;
71566;SDS011;59403;47.456;19.120;2023-05-07T08:51:03;3.58;;;3.28;;
71566;SDS011;59403;47.456;19.120;2023-05-07T08:53:30;4.47;;;3.50;;
71566;SDS011;59403;47.456;19.120;2023-05-07T08:55:57;3.50;;;3.17;;
71566;SDS011;59403;47.456;19.120;2023-05-07T08:58:25;4.47;;;3.30;;
71566;SDS011;59403;47.456;19.120;2023-05-07T09:00:52;4.78;;;3.75;;
71566;SDS011;59403;47.456;19.120;2023-05-07T09:03:21;5.12;;;3.70;;
71566;SDS011;59403;47.456;19.120;2023-05-07T09:05:48;6.30;;;3.70;;
71566;SDS011;59403;47.456;19.120;2023-05-07T09:08:15;6.55;;;3.70;;
71566;SDS011;59403;47.456;19.120;2023-05-07T09:10:42;5.18;;;4.12;;
71566;SDS011;59403;47.456;19.120;2023-05-07T09:13:09;5.22;;;3.90;;
71566;SDS011;59403;47.456;19.120;2023-05-07T09:15:39;7.25;;;4.10;;
71566;SDS011;59403;47.456;19.120;2023-05-07T09:18:06;6.93;;;5.33;;
71566;SDS011;59403;47.456;19.120;2023-05-07T09:20:34;8.93;;;5.05;;
71566;SDS011;59403;47.456;19.120;2023-05-07T09:23:02;4.37;;;3.97;;
71566;SDS011;59403;47.456;19.120;2023-05-07T09:25:29;8.02;;;4.68;;
71566;SDS011;59403;47.456;19.120;2023-05-07T09:27:58;6.35;;;4.35;;
71566;SDS011;59403;47.456;19.120;2023-05-07T09:30:27;7.00;;;4.77;;
71566;SDS011;59403;47.456;19.120;2023-05-07T09:32:54;6.15;;;5.55;;
71566;SDS011;59403;47.456;19.120;2023-05-07T09:35:21;5.82;;;5.10;;
71566;SDS011;59403;47.456;19.120;2023-05-07T09:37:50;6.75;;;5.00;;
71566;SDS011;59403;47.456;19.120;2023-05-07T09:40:21;5.85;;;4.80;;
71566;SDS011;59403;47.456;19.120;2023-05-07T09:42:48;5.67;;;4.60;;
71566;SDS011;59403;47.456;19.120;2023-05-07T09:45:15;5.90;;;4.25;;
71566;SDS011;59403;47.456;19.120;2023-05-07T09:47:47;5.03;;;4.00;;
71566;SDS011;59403;47.456;19.120;2023-05-07T09:50:16;6.47;;;4.30;;
71566;SDS011;59403;47.456;19.120;2023-05-07T09:52:44;4.35;;;3.60;;
71566;SDS011;59403;47.456;19.120;2023-05-07T09:55:13;5.53;;;4.30;;
71566;SDS011;59403;47.456;19.120;2023-05-07T09:57:41;6.12;;;4.57;;
71566;SDS011;59403;47.456;19.120;2023-05-07T10:00:09;5.32;;;4.20;;
71566;SDS011;59403;47.456;19.120;2023-05-07T10:02:37;5.25;;;4.53;;
71566;SDS011;59403;47.456;19.120;2023-05-07T10:05:11;5.18;;;4.25;;
71566;SDS011;59403;47.456;19.120;2023-05-07T10:07:39;5.13;;;4.30;;
71566;SDS011;59403;47.456;19.120;2023-05-07T10:10:06;5.35;;;4.10;;
71566;SDS011;59403;47.456;19.120;2023-05-07T10:12:35;7.87;;;4.25;;
71566;SDS011;59403;47.456;19.120;2023-05-07T10:15:05;6.65;;;4.72;;
71566;SDS011;59403;47.456;19.120;2023-05-07T10:17:34;11.68;;;5.10;;
71566;SDS011;59403;47.456;19.120;2023-05-07T10:20:02;5.40;;;4.83;;
71566;SDS011;59403;47.456;19.120;2023-05-07T10:22:29;7.35;;;4.65;;
71566;SDS011;59403;47.456;19.120;2023-05-07T10:24:59;4.62;;;3.97;;
71566;SDS011;59403;47.456;19.120;2023-05-07T10:27:30;5.78;;;4.28;;
71566;SDS011;59403;47.456;19.120;2023-05-07T10:30:00;4.60;;;4.00;;
71566;SDS011;59403;47.456;19.120;2023-05-07T10:32:39;4.83;;;3.90;;
71566;SDS011;59403;47.456;19.120;2023-05-07T10:35:10;8.15;;;4.75;;
71566;SDS011;59403;47.456;19.120;2023-05-07T10:37:40;4.30;;;3.72;;
71566;SDS011;59403;47.456;19.120;2023-05-07T10:40:08;8.55;;;4.20;;
71566;SDS011;59403;47.456;19.120;2023-05-07T10:42:37;4.80;;;3.60;;
71566;SDS011;59403;47.456;19.120;2023-05-07T10:48:10;5.62;;;3.95;;
71566;SDS011;59403;47.456;19.120;2023-05-07T10:50:38;4.50;;;4.03;;
71566;SDS011;59403;47.456;19.120;2023-05-07T10:53:22;5.37;;;4.20;;
71566;SDS011;59403;47.456;19.120;2023-05-07T10:55:52;6.40;;;3.85;;
71566;SDS011;59403;47.456;19.120;2023-05-07T10:58:52;4.40;;;4.00;;
71566;SDS011;59403;47.456;19.120;2023-05-07T11:04:19;3.83;;;3.50;;
71566;SDS011;59403;47.456;19.120;2023-05-07T11:09:55;4.43;;;3.50;;
71566;SDS011;59403;47.456;19.120;2023-05-07T11:12:51;6.40;;;3.90;;
71566;SDS011;59403;47.456;19.120;2023-05-07T11:15:37;5.28;;;4.15;;
71566;SDS011;59403;47.456;19.120;2023-05-07T11:18:08;5.90;;;4.00;;
71566;SDS011;59403;47.456;19.120;2023-05-07T11:20:45;4.40;;;3.97;;
71566;SDS011;59403;47.456;19.120;2023-05-07T11:26:27;14.83;;;5.07;;
71566;SDS011;59403;47.456;19.120;2023-05-07T11:28:56;7.68;;;4.37;;
71566;SDS011;59403;47.456;19.120;2023-05-07T11:31:26;6.37;;;4.68;;
71566;SDS011;59403;47.456;19.120;2023-05-07T11:33:56;5.80;;;4.30;;
71566;SDS011;59403;47.456;19.120;2023-05-07T11:36:24;5.47;;;4.50;;
71566;SDS011;59403;47.456;19.120;2023-05-07T11:38:52;6.43;;;4.93;;
71566;SDS011;59403;47.456;19.120;2023-05-07T11:41:19;6.25;;;4.60;;
71566;SDS011;59403;47.456;19.120;2023-05-07T11:43:58;4.72;;;3.85;;
71566;SDS011;59403;47.456;19.120;2023-05-07T11:46:26;5.43;;;4.37;;
71566;SDS011;59403;47.456;19.120;2023-05-07T11:48:55;5.07;;;4.00;;
71566;SDS011;59403;47.456;19.120;2023-05-07T11:51:24;5.40;;;4.00;;
71566;SDS011;59403;47.456;19.120;2023-05-07T11:53:52;4.53;;;3.33;;
71566;SDS011;59403;47.456;19.120;2023-05-07T11:56:19;4.85;;;4.35;;
71566;SDS011;59403;47.456;19.120;2023-05-07T11:58:47;5.80;;;3.80;;
71566;SDS011;59403;47.456;19.120;2023-05-07T12:01:14;5.20;;;4.00;;
71566;SDS011;59403;47.456;19.120;2023-05-07T12:03:43;4.30;;;3.53;;
71566;SDS011;59403;47.456;19.120;2023-05-07T12:06:14;4.10;;;3.70;;
71566;SDS011;59403;47.456;19.120;2023-05-07T12:08:41;4.22;;;3.75;;
71566;SDS011;59403;47.456;19.120;2023-05-07T12:11:11;4.62;;;4.12;;
71566;SDS011;59403;47.456;19.120;2023-05-07T12:13:41;4.85;;;3.47;;
71566;SDS011;59403;47.456;19.120;2023-05-07T12:16:08;4.20;;;3.80;;
71566;SDS011;59403;47.456;19.120;2023-05-07T12:18:36;4.28;;;3.90;;
71566;SDS011;59403;47.456;19.120;2023-05-07T12:21:04;4.45;;;4.05;;
71566;SDS011;59403;47.456;19.120;2023-05-07T12:23:33;4.57;;;4.12;;
71566;SDS011;59403;47.456;19.120;2023-05-07T12:26:01;5.20;;;3.78;;
71566;SDS011;59403;47.456;19.120;2023-05-07T12:28:29;5.90;;;5.30;;
71566;SDS011;59403;47.456;19.120;2023-05-07T12:31:03;5.28;;;4.78;;
71566;SDS011;59403;47.456;19.120;2023-05-07T12:33:31;4.93;;;4.05;;
71566;SDS011;59403;47.456;19.120;2023-05-07T12:36:00;4.62;;;3.45;;
71566;SDS011;59403;47.456;19.120;2023-05-07T12:38:36;4.85;;;3.80;;
71566;SDS011;59403;47.456;19.120;2023-05-07T12:41:04;5.20;;;3.90;;
71566;SDS011;59403;47.456;19.120;2023-05-07T12:43:32;3.80;;;3.50;;
71566;SDS011;59403;47.456;19.120;2023-05-07T12:45:59;4.72;;;3.62;;
71566;SDS011;59403;47.456;19.120;2023-05-07T12:48:27;3.55;;;3.12;;
71566;SDS011;59403;47.456;19.120;2023-05-07T12:50:55;4.60;;;3.35;;
71566;SDS011;59403;47.456;19.120;2023-05-07T12:53:23;4.47;;;3.60;;
71566;SDS011;59403;47.456;19.120;2023-05-07T12:55:53;4.10;;;3.70;;
71566;SDS011;59403;47.456;19.120;2023-05-07T12:58:23;3.58;;;3.28;;
71566;SDS011;59403;47.456;19.120;2023-05-07T13:00:51;4.25;;;3.72;;
71566;SDS011;59403;47.456;19.120;2023-05-07T13:03:23;4.22;;;3.83;;
71566;SDS011;59403;47.456;19.120;2023-05-07T13:06:00;4.50;;;4.03;;
71566;SDS011;59403;47.456;19.120;2023-05-07T13:08:30;3.80;;;3.50;;
71566;SDS011;59403;47.456;19.120;2023-05-07T13:11:00;3.70;;;3.10;;
71566;SDS011;59403;47.456;19.120;2023-05-07T13:13:29;3.92;;;3.53;;
71566;SDS011;59403;47.456;19.120;2023-05-07T13:15:56;3.28;;;2.97;;
71566;SDS011;59403;47.456;19.120;2023-05-07T13:18:24;3.10;;;2.80;;
71566;SDS011;59403;47.456;19.120;2023-05-07T13:20:51;3.55;;;3.25;;
71566;SDS011;59403;47.456;19.120;2023-05-07T13:23:18;4.15;;;2.85;;
71566;SDS011;59403;47.456;19.120;2023-05-07T13:25:45;4.18;;;3.28;;
71566;SDS011;59403;47.456;19.120;2023-05-07T13:28:14;3.78;;;3.12;;
71566;SDS011;59403;47.456;19.120;2023-05-07T13:30:40;5.47;;;3.53;;
71566;SDS011;59403;47.456;19.120;2023-05-07T13:33:08;3.30;;;2.80;;
71566;SDS011;59403;47.456;19.120;2023-05-07T13:35:35;5.85;;;3.37;;
71566;SDS011;59403;47.456;19.120;2023-05-07T13:38:02;3.47;;;3.17;;
71566;SDS011;59403;47.456;19.120;2023-05-07T13:40:28;5.55;;;3.22;;
71566;SDS011;59403;47.456;19.120;2023-05-07T13:42:56;3.93;;;3.13;;
71566;SDS011;59403;47.456;19.120;2023-05-07T13:45:25;4.25;;;2.60;;
71566;SDS011;59403;47.456;19.120;2023-05-07T13:47:54;4.70;;;3.40;;
71566;SDS011;59403;47.456;19.120;2023-05-07T13:50:22;4.72;;;2.85;;
71566;SDS011;59403;47.456;19.120;2023-05-07T13:52:49;4.30;;;2.75;;
71566;SDS011;59403;47.456;19.120;2023-05-07T13:55:16;3.00;;;2.70;;
71566;SDS011;59403;47.456;19.120;2023-05-07T13:57:44;2.47;;;2.20;;
71566;SDS011;59403;47.456;19.120;2023-05-07T14:00:11;3.15;;;2.58;;
71566;SDS011;59403;47.456;19.120;2023-05-07T14:02:40;3.17;;;2.87;;
71566;SDS011;59403;47.456;19.120;2023-05-07T14:05:07;3.70;;;2.83;;
71566;SDS011;59403;47.456;19.120;2023-05-07T14:07:35;3.87;;;2.57;;
71566;SDS011;59403;47.456;19.120;2023-05-07T14:10:02;3.72;;;2.53;;
71566;SDS011;59403;47.456;19.120;2023-05-07T14:12:29;3.33;;;3.03;;
71566;SDS011;59403;47.456;19.120;2023-05-07T14:14:56;3.55;;;3.25;;
71566;SDS011;59403;47.456;19.120;2023-05-07T14:17:23;3.97;;;3.40;;
71566;SDS011;59403;47.456;19.120;2023-05-07T14:19:53;5.50;;;3.57;;
71566;SDS011;59403;47.456;19.120;2023-05-07T14:22:21;3.80;;;3.40;;
71566;SDS011;59403;47.456;19.120;2023-05-07T14:24:48;3.65;;;3.17;;
71566;SDS011;59403;47.456;19.120;2023-05-07T14:27:16;3.95;;;3.60;;
71566;SDS011;59403;47.456;19.120;2023-05-07T14:29:43;5.28;;;3.90;;
71566;SDS011;59403;47.456;19.120;2023-05-07T14:32:10;7.67;;;3.77;;
71566;SDS011;59403;47.456;19.120;2023-05-07T14:34:38;4.50;;;3.10;;
71566;SDS011;59403;47.456;19.120;2023-05-07T14:37:06;4.93;;;2.78;;
71566;SDS011;59403;47.456;19.120;2023-05-07T14:39:33;5.30;;;3.10;;
71566;SDS011;59403;47.456;19.120;2023-05-07T14:42:00;4.35;;;3.35;;
71566;SDS011;59403;47.456;19.120;2023-05-07T14:44:26;5.60;;;4.23;;
71566;SDS011;59403;47.456;19.120;2023-05-07T14:46:53;6.93;;;4.30;;
71566;SDS011;59403;47.456;19.120;2023-05-07T14:49:20;3.95;;;3.40;;
71566;SDS011;59403;47.456;19.120;2023-05-07T14:51:47;4.57;;;3.20;;
71566;SDS011;59403;47.456;19.120;2023-05-07T14:54:15;4.03;;;3.55;;
71566;SDS011;59403;47.456;19.120;2023-05-07T14:56:42;5.30;;;3.63;;
71566;SDS011;59403;47.456;19.120;2023-05-07T14:59:09;3.70;;;3.03;;
71566;SDS011;59403;47.456;19.120;2023-05-07T15:01:36;3.55;;;3.17;;
71566;SDS011;59403;47.456;19.120;2023-05-07T15:04:05;5.85;;;3.67;;
71566;SDS011;59403;47.456;19.120;2023-05-07T15:06:32;4.97;;;3.85;;
71566;SDS011;59403;47.456;19.120;2023-05-07T15:08:59;4.60;;;3.63;;
71566;SDS011;59403;47.456;19.120;2023-05-07T15:11:27;6.57;;;3.53;;
71566;SDS011;59403;47.456;19.120;2023-05-07T15:13:54;4.95;;;3.62;;
71566;SDS011;59403;47.456;19.120;2023-05-07T15:16:21;5.97;;;3.10;;
71566;SDS011;59403;47.456;19.120;2023-05-07T15:18:48;3.95;;;3.28;;
71566;SDS011;59403;47.456;19.120;2023-05-07T15:21:14;4.90;;;3.60;;
71566;SDS011;59403;47.456;19.120;2023-05-07T15:23:42;4.97;;;4.03;;
71566;SDS011;59403;47.456;19.120;2023-05-07T15:26:09;5.05;;;4.20;;
71566;SDS011;59403;47.456;19.120;2023-05-07T15:28:38;5.95;;;5.03;;
71566;SDS011;59403;47.456;19.120;2023-05-07T15:31:05;6.05;;;4.80;;
71566;SDS011;59403;47.456;19.120;2023-05-07T15:33:32;4.70;;;4.20;;
71566;SDS011;59403;47.456;19.120;2023-05-07T15:35:59;6.87;;;4.47;;
71566;SDS011;59403;47.456;19.120;2023-05-07T15:38:26;6.07;;;4.43;;
71566;SDS011;59403;47.456;19.120;2023-05-07T15:40:53;6.68;;;4.35;;
71566;SDS011;59403;47.456;19.120;2023-05-07T15:43:20;6.30;;;4.12;;
71566;SDS011;59403;47.456;19.120;2023-05-07T15:45:49;5.63;;;4.97;;
71566;SDS011;59403;47.456;19.120;2023-05-07T15:48:16;5.93;;;3.90;;
71566;SDS011;59403;47.456;19.120;2023-05-07T15:50:43;4.87;;;4.07;;
71566;SDS011;59403;47.456;19.120;2023-05-07T15:53:10;6.68;;;4.60;;
71566;SDS011;59403;47.456;19.120;2023-05-07T15:55:38;9.55;;;4.47;;
71566;SDS011;59403;47.456;19.120;2023-05-07T15:58:07;6.00;;;4.00;;
71566;SDS011;59403;47.456;19.120;2023-05-07T16:00:34;5.37;;;4.05;;
71566;SDS011;59403;47.456;19.120;2023-05-07T16:03:02;4.37;;;3.67;;
71566;SDS011;59403;47.456;19.120;2023-05-07T16:05:30;4.43;;;3.33;;
71566;SDS011;59403;47.456;19.120;2023-05-07T16:07:56;3.47;;;3.03;;
71566;SDS011;59403;47.456;19.120;2023-05-07T16:10:24;4.47;;;3.50;;
71566;SDS011;59403;47.456;19.120;2023-05-07T16:12:51;3.47;;;2.80;;
71566;SDS011;59403;47.456;19.120;2023-05-07T16:15:18;5.28;;;3.22;;
71566;SDS011;59403;47.456;19.120;2023-05-07T16:17:45;5.12;;;3.20;;
71566;SDS011;59403;47.456;19.120;2023-05-07T16:20:14;3.65;;;2.92;;
71566;SDS011;59403;47.456;19.120;2023-05-07T16:22:44;3.77;;;2.93;;
71566;SDS011;59403;47.456;19.120;2023-05-07T16:25:10;4.32;;;3.67;;
71566;SDS011;59403;47.456;19.120;2023-05-07T16:27:38;10.48;;;2.75;;
71566;SDS011;59403;47.456;19.120;2023-05-07T16:30:06;3.80;;;2.85;;
71566;SDS011;59403;47.456;19.120;2023-05-07T16:32:33;3.62;;;2.78;;
71566;SDS011;59403;47.456;19.120;2023-05-07T16:35:00;3.70;;;2.57;;
71566;SDS011;59403;47.456;19.120;2023-05-07T16:37:28;4.15;;;2.72;;
71566;SDS011;59403;47.456;19.120;2023-05-07T16:39:55;4.22;;;2.25;;
71566;SDS011;59403;47.456;19.120;2023-05-07T16:42:24;3.85;;;2.28;;
71566;SDS011;59403;47.456;19.120;2023-05-07T16:44:51;3.97;;;2.60;;
71566;SDS011;59403;47.456;19.120;2023-05-07T16:47:18;2.87;;;2.57;;
71566;SDS011;59403;47.456;19.120;2023-05-07T16:49:45;3.25;;;2.20;;
71566;SDS011;59403;47.456;19.120;2023-05-07T16:52:12;3.05;;;2.08;;
71566;SDS011;59403;47.456;19.120;2023-05-07T16:54:41;3.70;;;2.33;;
71566;SDS011;59403;47.456;19.120;2023-05-07T16:57:07;3.17;;;2.20;;
71566;SDS011;59403;47.456;19.120;2023-05-07T16:59:34;4.03;;;2.60;;
71566;SDS011;59403;47.456;19.120;2023-05-07T17:02:01;4.32;;;2.40;;
71566;SDS011;59403;47.456;19.120;2023-05-07T17:04:28;3.95;;;2.30;;
71566;SDS011;59403;47.456;19.120;2023-05-07T17:06:56;3.00;;;2.70;;
71566;SDS011;59403;47.456;19.120;2023-05-07T17:09:23;3.20;;;2.40;;
71566;SDS011;59403;47.456;19.120;2023-05-07T17:11:51;4.10;;;2.20;;
71566;SDS011;59403;47.456;19.120;2023-05-07T17:14:18;5.90;;;2.42;;
71566;SDS011;59403;47.456;19.120;2023-05-07T17:16:45;4.00;;;2.15;;
71566;SDS011;59403;47.456;19.120;2023-05-07T17:19:12;4.05;;;2.03;;
71566;SDS011;59403;47.456;19.120;2023-05-07T17:21:39;10.50;;;3.00;;
71566;SDS011;59403;47.456;19.120;2023-05-07T17:24:06;4.17;;;2.60;;
71566;SDS011;59403;47.456;19.120;2023-05-07T17:26:33;3.08;;;2.10;;
71566;SDS011;59403;47.456;19.120;2023-05-07T17:29:03;4.25;;;2.37;;
71566;SDS011;59403;47.456;19.120;2023-05-07T17:31:30;3.37;;;2.10;;
71566;SDS011;59403;47.456;19.120;2023-05-07T17:33:56;3.08;;;2.35;;
71566;SDS011;59403;47.456;19.120;2023-05-07T17:36:23;4.13;;;2.80;;
71566;SDS011;59403;47.456;19.120;2023-05-07T17:38:50;3.28;;;2.40;;
71566;SDS011;59403;47.456;19.120;2023-05-07T17:41:17;4.82;;;2.40;;
71566;SDS011;59403;47.456;19.120;2023-05-07T17:43:45;3.72;;;1.98;;
71566;SDS011;59403;47.456;19.120;2023-05-07T17:46:13;4.28;;;2.22;;
71566;SDS011;59403;47.456;19.120;2023-05-07T17:48:40;2.47;;;2.10;;
71566;SDS011;59403;47.456;19.120;2023-05-07T17:51:07;2.78;;;2.30;;
71566;SDS011;59403;47.456;19.120;2023-05-07T17:53:37;4.87;;;2.35;;
71566;SDS011;59403;47.456;19.120;2023-05-07T17:56:04;4.72;;;2.60;;
71566;SDS011;59403;47.456;19.120;2023-05-07T17:58:31;5.82;;;2.50;;
71566;SDS011;59403;47.456;19.120;2023-05-07T18:00:58;3.90;;;2.30;;
71566;SDS011;59403;47.456;19.120;2023-05-07T18:03:26;3.12;;;2.20;;
71566;SDS011;59403;47.456;19.120;2023-05-07T18:05:54;3.75;;;1.90;;
71566;SDS011;59403;47.456;19.120;2023-05-07T18:08:21;3.20;;;2.60;;
71566;SDS011;59403;47.456;19.120;2023-05-07T18:10:48;3.75;;;2.33;;
71566;SDS011;59403;47.456;19.120;2023-05-07T18:13:15;3.07;;;2.57;;
71566;SDS011;59403;47.456;19.120;2023-05-07T18:15:43;3.75;;;2.80;;
71566;SDS011;59403;47.456;19.120;2023-05-07T18:18:11;2.60;;;2.25;;
71566;SDS011;59403;47.456;19.120;2023-05-07T18:20:39;3.65;;;2.30;;
71566;SDS011;59403;47.456;19.120;2023-05-07T18:23:06;2.90;;;2.22;;
71566;SDS011;59403;47.456;19.120;2023-05-07T18:25:35;3.37;;;2.60;;
71566;SDS011;59403;47.456;19.120;2023-05-07T18:28:02;4.53;;;2.90;;
71566;SDS011;59403;47.456;19.120;2023-05-07T18:30:29;4.05;;;2.45;;
71566;SDS011;59403;47.456;19.120;2023-05-07T18:32:55;5.97;;;2.30;;
71566;SDS011;59403;47.456;19.120;2023-05-07T18:35:22;2.60;;;2.37;;